Time;durP1;ratioP1;P1;durP2;ratioP2;P2;SDS_P1;SDS_P2;PMS_P1;PMS_P2;Temp;Humidity;BMP_temperature;BMP_pressure;BME280_temperature;BME280_humidity;BME280_pressure;Samples;Min_cycle;Max_cycle;Signal;HPM_P1;HPM_P2
2021/09/16 00:00:36;;;;;;;3.78;3.47;;;25.10;52.30;;;;;;5036619;28;20313;-46
2021/09/16 00:03:03;;;;;;;3.80;3.50;;;25.10;52.40;;;;;;5035053;28;20226;-45
2021/09/16 00:05:29;;;;;;;3.83;3.53;;;25.10;52.30;;;;;;5046492;28;20753;-42
2021/09/16 00:07:56;;;;;;;4.82;3.80;;;25.10;52.30;;;;;;5053380;28;20233;-44
2021/09/16 00:10:22;;;;;;;3.10;2.90;;;25.10;52.30;;;;;;5052806;28;20249;-48
2021/09/16 00:12:48;;;;;;;3.58;3.28;;;25.10;52.30;;;;;;5053984;28;20245;-45
2021/09/16 00:15:15;;;;;;;3.35;3.05;;;25.10;52.30;;;;;;5042630;28;20254;-43
2021/09/16 00:17:41;;;;;;;3.45;3.15;;;25.10;52.30;;;;;;5054337;28;20635;-49
2021/09/16 00:20:08;;;;;;;3.50;3.25;;;25.10;52.30;;;;;;5034827;28;20649;-44
2021/09/16 00:22:34;;;;;;;3.53;3.25;;;25.10;52.20;;;;;;5034200;28;20575;-46
2021/09/16 00:25:01;;;;;;;3.33;3.05;;;25.10;52.30;;;;;;5036875;28;20246;-47
2021/09/16 00:27:27;;;;;;;3.65;3.35;;;25.10;52.30;;;;;;5053050;28;20210;-46
2021/09/16 00:29:54;;;;;;;3.40;3.08;;;25.10;52.30;;;;;;5034380;28;20664;-44
2021/09/16 00:32:20;;;;;;;3.30;3.10;;;25.10;52.20;;;;;;5033089;28;20234;-43
2021/09/16 00:34:47;;;;;;;3.83;3.50;;;25.10;52.30;;;;;;5033593;28;20309;-48
2021/09/16 00:37:14;;;;;;;3.63;3.33;;;25.10;52.20;;;;;;5033690;28;20258;-43
2021/09/16 00:39:41;;;;;;;5.05;3.08;;;25.10;52.20;;;;;;5033486;28;20742;-48
2021/09/16 00:42:07;;;;;;;3.58;3.28;;;25.10;52.20;;;;;;5038149;28;20218;-44
2021/09/16 00:44:34;;;;;;;3.60;3.30;;;25.10;52.20;;;;;;5033438;28;20234;-43
2021/09/16 00:47:00;;;;;;;3.42;3.13;;;25.10;52.20;;;;;;5046754;28;20225;-43
2021/09/16 00:49:27;;;;;;;3.63;3.33;;;25.10;52.20;;;;;;5047448;28;20234;-43
2021/09/16 00:51:53;;;;;;;3.75;2.95;;;25.10;52.20;;;;;;5033595;28;20241;-45
2021/09/16 00:54:20;;;;;;;3.20;3.00;;;25.10;52.20;;;;;;5035348;28;20245;-43
2021/09/16 00:56:46;;;;;;;3.50;3.30;;;25.10;52.20;;;;;;5042052;28;20799;-45
2021/09/16 00:59:13;;;;;;;3.42;3.13;;;25.10;52.20;;;;;;5051119;28;20222;-43
2021/09/16 01:01:39;;;;;;;3.33;3.00;;;25.10;52.30;;;;;;5037562;28;20245;-46
2021/09/16 01:04:06;;;;;;;3.10;2.90;;;25.10;52.20;;;;;;5051008;28;20741;-47
2021/09/16 01:06:33;;;;;;;3.75;3.45;;;25.10;52.20;;;;;;5039566;28;20256;-46
2021/09/16 01:08:59;;;;;;;3.17;2.75;;;25.10;52.20;;;;;;5046990;28;20225;-45
2021/09/16 01:11:26;;;;;;;3.13;2.92;;;25.10;52.20;;;;;;5050817;28;20289;-49
2021/09/16 01:13:52;;;;;;;3.28;3.03;;;25.10;52.20;;;;;;5032437;28;20571;-48
2021/09/16 01:16:19;;;;;;;3.08;2.78;;;25.10;52.20;;;;;;5052257;28;20253;-46
2021/09/16 01:18:45;;;;;;;3.10;2.90;;;25.10;52.20;;;;;;5043138;28;20230;-51
2021/09/16 01:21:11;;;;;;;3.40;3.10;;;25.10;52.30;;;;;;5032698;28;20680;-47
2021/09/16 01:23:38;;;;;;;3.10;2.90;;;25.10;52.30;;;;;;5034444;28;20258;-46
2021/09/16 01:26:04;;;;;;;3.50;3.28;;;25.10;52.20;;;;;;5046770;28;20245;-48
2021/09/16 01:28:31;;;;;;;3.08;2.88;;;25.10;52.30;;;;;;5050668;28;20249;-45
2021/09/16 01:30:57;;;;;;;3.25;2.95;;;25.10;52.30;;;;;;5038436;28;20272;-48
2021/09/16 01:33:24;;;;;;;3.10;2.90;;;25.10;52.30;;;;;;5036694;28;20241;-50
2021/09/16 01:35:50;;;;;;;3.03;2.83;;;25.10;52.30;;;;;;5048953;28;20306;-43
2021/09/16 01:38:17;;;;;;;2.92;2.72;;;25.10;52.40;;;;;;5051542;28;20225;-48
2021/09/16 01:40:43;;;;;;;3.15;2.95;;;25.10;52.40;;;;;;5045369;28;20675;-43
2021/09/16 01:43:10;;;;;;;3.30;3.00;;;25.10;52.40;;;;;;5043509;28;20360;-43
2021/09/16 01:45:36;;;;;;;3.45;3.15;;;25.10;52.40;;;;;;5031702;28;20253;-43
2021/09/16 01:48:03;;;;;;;2.97;2.78;;;25.10;52.40;;;;;;5032206;28;20230;-44
2021/09/16 01:50:29;;;;;;;3.13;2.83;;;25.10;52.40;;;;;;5032494;28;20238;-46
2021/09/16 01:52:56;;;;;;;3.30;3.10;;;25.10;52.40;;;;;;5041325;28;20645;-42
2021/09/16 01:55:22;;;;;;;2.80;2.60;;;25.10;52.40;;;;;;5030424;28;20245;-43
2021/09/16 01:57:49;;;;;;;3.33;3.03;;;25.10;52.40;;;;;;5031118;28;20234;-45
2021/09/16 02:00:15;;;;;;;2.83;2.63;;;25.10;52.40;;;;;;5032372;28;20623;-48
2021/09/16 02:02:42;;;;;;;3.72;3.42;;;25.10;52.40;;;;;;5041716;28;20230;-43
2021/09/16 02:05:09;;;;;;;3.05;2.80;;;25.10;52.50;;;;;;5043394;28;20218;-44
2021/09/16 02:07:35;;;;;;;3.17;2.83;;;25.10;52.50;;;;;;5042935;28;20302;-46
2021/09/16 02:10:02;;;;;;;3.13;2.92;;;25.10;52.50;;;;;;5031541;28;20690;-42
2021/09/16 02:12:28;;;;;;;2.88;2.67;;;25.10;52.50;;;;;;5035793;28;20237;-47
2021/09/16 02:14:55;;;;;;;2.85;2.55;;;25.10;52.60;;;;;;5032953;28;20678;-43
2021/09/16 02:17:22;;;;;;;3.22;3.03;;;25.10;52.50;;;;;;5031920;28;20226;-43
2021/09/16 02:19:48;;;;;;;2.95;2.75;;;25.10;52.50;;;;;;5035315;28;20240;-43
2021/09/16 02:22:14;;;;;;;3.20;2.90;;;25.10;52.50;;;;;;5050851;28;20685;-42
2021/09/16 02:24:41;;;;;;;3.28;2.97;;;25.10;52.50;;;;;;5047319;28;20249;-45
2021/09/16 02:27:07;;;;;;;2.95;2.70;;;25.10;52.50;;;;;;5031406;28;20304;-46
2021/09/16 02:29:34;;;;;;;3.00;2.80;;;25.10;52.60;;;;;;5031927;28;20237;-43
2021/09/16 02:32:00;;;;;;;2.92;2.72;;;25.10;52.60;;;;;;5038744;28;20236;-43
2021/09/16 02:34:27;;;;;;;2.83;2.63;;;25.10;52.60;;;;;;5029681;28;20690;-45
2021/09/16 02:36:53;;;;;;;3.38;3.08;;;25.10;52.60;;;;;;5049381;28;20233;-42
2021/09/16 02:39:20;;;;;;;3.00;2.53;;;25.10;52.60;;;;;;5050548;28;20654;-49
2021/09/16 02:41:46;;;;;;;2.70;2.50;;;25.10;52.70;;;;;;5032417;28;20226;-44
2021/09/16 02:44:13;;;;;;;2.90;2.70;;;25.10;52.60;;;;;;5031008;28;20266;-45
2021/09/16 02:46:39;;;;;;;3.33;3.08;;;25.10;52.60;;;;;;5031775;28;20234;-46
2021/09/16 02:49:06;;;;;;;3.03;2.80;;;25.10;52.60;;;;;;5031824;28;20748;-45
2021/09/16 02:51:32;;;;;;;3.17;2.85;;;25.10;52.60;;;;;;5031420;28;20230;-43
2021/09/16 02:53:59;;;;;;;3.13;2.92;;;25.10;52.60;;;;;;5040734;28;20321;-41
2021/09/16 02:56:25;;;;;;;3.03;2.60;;;25.10;52.60;;;;;;5043612;28;20634;-42
2021/09/16 02:58:51;;;;;;;3.25;2.95;;;25.10;52.60;;;;;;5051526;28;20233;-45
2021/09/16 03:01:18;;;;;;;2.78;2.58;;;25.10;52.60;;;;;;5049155;28;20240;-42
2021/09/16 03:03:44;;;;;;;3.22;2.92;;;25.10;52.60;;;;;;5033500;28;20326;-42
2021/09/16 03:06:11;;;;;;;3.33;2.95;;;25.10;52.70;;;;;;5030007;28;20277;-42
2021/09/16 03:08:37;;;;;;;3.17;2.92;;;25.10;52.70;;;;;;5031389;28;20245;-44
2021/09/16 03:11:04;;;;;;;3.30;3.00;;;25.10;52.70;;;;;;5029518;28;20298;-46
2021/09/16 03:13:30;;;;;;;2.78;2.58;;;25.10;52.80;;;;;;5032894;28;20633;-43
2021/09/16 03:15:57;;;;;;;3.10;2.70;;;25.10;52.80;;;;;;5039533;28;20217;-43
2021/09/16 03:18:23;;;;;;;2.80;2.60;;;25.10;52.90;;;;;;5047248;28;20599;-42
2021/09/16 03:20:50;;;;;;;3.30;2.72;;;25.10;52.90;;;;;;5039199;28;20670;-43
2021/09/16 03:23:16;;;;;;;3.78;2.97;;;25.10;52.80;;;;;;5031191;28;20249;-41
2021/09/16 03:25:43;;;;;;;2.67;2.47;;;25.10;52.90;;;;;;5036579;28;20305;-41
2021/09/16 03:28:09;;;;;;;4.88;2.70;;;25.10;52.90;;;;;;5031505;28;20302;-41
2021/09/16 03:30:36;;;;;;;2.72;2.53;;;25.10;52.90;;;;;;5043278;28;20289;-45
2021/09/16 03:33:02;;;;;;;3.13;2.85;;;25.10;52.80;;;;;;5031167;28;20622;-46
2021/09/16 03:35:29;;;;;;;2.72;2.53;;;25.10;52.90;;;;;;5046263;28;20253;-44
2021/09/16 03:37:55;;;;;;;2.90;2.70;;;25.10;52.80;;;;;;5047352;28;20237;-43
2021/09/16 03:40:22;;;;;;;2.65;2.40;;;25.10;52.70;;;;;;5031836;28;20627;-44
2021/09/16 03:42:50;;;;;;;2.80;2.60;;;25.10;52.80;;;;;;5031113;28;20230;-43
2021/09/16 03:45:16;;;;;;;3.83;2.60;;;25.10;52.80;;;;;;5034408;28;20214;-45
2021/09/16 03:47:43;;;;;;;2.67;2.47;;;25.10;52.70;;;;;;5035477;28;20194;-45
2021/09/16 03:50:09;;;;;;;2.90;2.58;;;25.10;52.70;;;;;;5046724;28;20236;-50
2021/09/16 03:52:36;;;;;;;2.70;2.50;;;25.10;52.70;;;;;;5041657;28;20233;-46
2021/09/16 03:55:02;;;;;;;2.97;2.78;;;25.10;52.70;;;;;;5041518;28;20249;-47
2021/09/16 03:57:29;;;;;;;2.55;2.35;;;25.10;52.80;;;;;;5036372;28;20309;-41
2021/09/16 03:59:55;;;;;;;2.65;2.45;;;25.10;52.70;;;;;;5043148;28;20244;-42
2021/09/16 04:02:22;;;;;;;3.50;2.63;;;25.10;53.40;;;;;;5043584;28;20256;-42
2021/09/16 04:04:49;;;;;;;3.03;2.45;;;25.10;52.70;;;;;;5034543;28;20242;-43
2021/09/16 04:07:15;;;;;;;3.17;2.88;;;25.10;52.70;;;;;;5033903;28;20248;-46
2021/09/16 04:09:42;;;;;;;2.72;2.53;;;25.10;52.70;;;;;;5034570;28;20306;-46
2021/09/16 04:12:08;;;;;;;2.83;2.53;;;25.10;52.70;;;;;;5034932;28;20234;-45
2021/09/16 04:14:34;;;;;;;2.38;2.17;;;25.10;52.70;;;;;;5038108;28;20657;-50
2021/09/16 04:17:01;;;;;;;3.08;2.63;;;25.10;52.70;;;;;;5047201;28;20229;-48
2021/09/16 04:19:27;;;;;;;2.83;2.63;;;25.10;52.70;;;;;;5036708;28;20309;-45
2021/09/16 04:21:54;;;;;;;2.50;2.30;;;25.10;52.60;;;;;;5032855;28;20641;-47
2021/09/16 04:24:20;;;;;;;2.88;2.40;;;25.10;52.60;;;;;;5048054;28;20307;-46
2021/09/16 04:26:47;;;;;;;2.65;2.45;;;25.10;52.60;;;;;;5033499;28;20249;-49
2021/09/16 04:29:13;;;;;;;2.78;2.58;;;25.10;52.60;;;;;;5033080;28;20643;-51
2021/09/16 04:31:40;;;;;;;2.78;2.58;;;25.10;52.60;;;;;;5034106;28;20615;-48
2021/09/16 04:34:06;;;;;;;2.65;2.45;;;25.10;52.60;;;;;;5032116;28;20250;-44
2021/09/16 04:36:33;;;;;;;2.58;2.38;;;25.00;52.60;;;;;;5037014;28;20230;-50
2021/09/16 04:38:59;;;;;;;2.60;2.40;;;25.00;52.60;;;;;;5033500;28;20206;-48
2021/09/16 04:41:26;;;;;;;2.85;2.65;;;25.10;52.70;;;;;;5033292;28;20299;-51
2021/09/16 04:43:52;;;;;;;2.88;2.67;;;25.10;52.80;;;;;;5037805;28;20856;-46
2021/09/16 04:46:19;;;;;;;2.85;2.65;;;25.10;52.80;;;;;;5047530;28;20225;-45
2021/09/16 04:48:45;;;;;;;3.22;2.50;;;25.10;52.90;;;;;;5050687;28;20237;-46
2021/09/16 04:51:12;;;;;;;2.60;2.40;;;25.10;52.80;;;;;;5051998;28;20696;-48
2021/09/16 04:53:38;;;;;;;2.88;2.63;;;25.10;52.80;;;;;;5045663;28;20734;-43
2021/09/16 04:56:05;;;;;;;2.47;2.28;;;25.10;52.90;;;;;;5040135;28;20233;-48
2021/09/16 04:58:31;;;;;;;3.10;2.70;;;25.10;52.90;;;;;;5041020;28;20614;-46
2021/09/16 05:00:58;;;;;;;2.72;2.38;;;25.10;52.90;;;;;;5035804;28;20217;-42
2021/09/16 05:03:24;;;;;;;2.80;2.60;;;25.10;52.90;;;;;;5036524;28;20316;-47
2021/09/16 05:05:50;;;;;;;2.75;2.50;;;25.10;52.90;;;;;;5033207;28;20272;-51
2021/09/16 05:08:17;;;;;;;2.58;2.10;;;25.10;52.90;;;;;;5040737;28;20258;-49
2021/09/16 05:10:43;;;;;;;2.45;2.22;;;25.10;52.90;;;;;;5033193;28;20262;-52
2021/09/16 05:13:10;;;;;;;3.42;2.60;;;25.10;52.90;;;;;;5045190;28;20229;-46
2021/09/16 05:15:36;;;;;;;2.55;2.45;;;25.00;52.90;;;;;;5046885;28;20252;-45
2021/09/16 05:18:03;;;;;;;2.97;2.70;;;25.10;53.00;;;;;;5043999;28;20233;-44
2021/09/16 05:20:29;;;;;;;2.65;2.40;;;25.00;52.90;;;;;;5046439;28;20234;-46
2021/09/16 05:22:56;;;;;;;2.60;2.40;;;25.10;52.90;;;;;;5043288;28;20241;-43
2021/09/16 05:25:22;;;;;;;3.50;2.75;;;25.10;52.90;;;;;;5039520;28;20819;-43
2021/09/16 05:27:49;;;;;;;3.30;2.47;;;25.10;52.90;;;;;;5041222;28;20248;-45
2021/09/16 05:30:15;;;;;;;2.63;2.42;;;25.10;52.90;;;;;;5035271;28;20232;-44
2021/09/16 05:32:42;;;;;;;2.55;2.35;;;25.10;52.90;;;;;;5031262;28;20198;-43
2021/09/16 05:35:08;;;;;;;3.42;2.70;;;25.10;52.90;;;;;;5035870;28;20250;-44
2021/09/16 05:37:35;;;;;;;2.67;2.47;;;25.10;52.80;;;;;;5032621;28;20682;-43
2021/09/16 05:40:01;;;;;;;2.58;2.35;;;25.10;52.90;;;;;;5035970;28;20221;-44
2021/09/16 05:42:28;;;;;;;4.05;2.50;;;25.10;53.10;;;;;;5046693;28;20237;-48
2021/09/16 05:44:54;;;;;;;2.80;2.60;;;25.10;53.20;;;;;;5040621;28;20701;-43
2021/09/16 05:47:21;;;;;;;2.92;2.63;;;25.10;53.30;;;;;;5032574;28;20602;-53
2021/09/16 05:49:47;;;;;;;5.22;2.45;;;25.10;53.40;;;;;;5039496;28;20225;-44
2021/09/16 05:52:14;;;;;;;5.45;2.83;;;25.10;53.60;;;;;;5033889;28;20317;-43
2021/09/16 05:54:40;;;;;;;4.72;2.63;;;25.10;53.30;;;;;;5035540;28;20662;-44
2021/09/16 05:57:07;;;;;;;4.50;2.72;;;25.10;53.50;;;;;;5034430;28;20225;-44
2021/09/16 05:59:33;;;;;;;10.10;3.35;;;25.10;54.20;;;;;;5030539;28;20202;-43
2021/09/16 06:02:00;;;;;;;4.30;2.92;;;25.10;55.20;;;;;;5031835;28;20230;-44
2021/09/16 06:04:26;;;;;;;6.40;3.33;;;25.20;54.80;;;;;;5030701;28;20325;-45
2021/09/16 06:06:53;;;;;;;6.75;3.40;;;25.10;55.10;;;;;;5030857;28;20238;-46
2021/09/16 06:09:19;;;;;;;6.85;3.90;;;25.20;55.30;;;;;;5032408;28;20702;-44
2021/09/16 06:11:45;;;;;;;6.45;3.40;;;25.20;55.50;;;;;;5042878;28;20233;-47
2021/09/16 06:14:12;;;;;;;7.82;3.20;;;25.10;55.60;;;;;;5048272;28;20221;-43
2021/09/16 06:16:38;;;;;;;7.72;3.45;;;24.90;54.10;;;;;;5039419;28;20255;-52
2021/09/16 06:19:05;;;;;;;3.63;2.83;;;24.70;54.70;;;;;;5049032;28;20202;-48
2021/09/16 06:21:31;;;;;;;7.55;3.08;;;24.70;55.20;;;;;;5036980;28;20240;-51
2021/09/16 06:23:58;;;;;;;8.18;3.92;;;24.80;56.00;;;;;;5045358;28;20666;-47
2021/09/16 06:26:24;;;;;;;5.50;3.00;;;24.90;56.40;;;;;;5041891;28;20324;-48
2021/09/16 06:28:51;;;;;;;6.20;2.90;;;25.00;56.60;;;;;;5035538;28;20241;-49
2021/09/16 06:31:18;;;;;;;5.88;3.20;;;25.00;56.60;;;;;;5043150;28;20644;-45
2021/09/16 06:33:44;;;;;;;5.03;2.70;;;25.00;56.40;;;;;;5048981;28;20317;-50
2021/09/16 06:36:11;;;;;;;6.10;2.85;;;25.00;56.40;;;;;;5035815;28;20260;-45
2021/09/16 06:38:37;;;;;;;6.07;3.15;;;25.00;56.40;;;;;;5033337;28;20662;-46
2021/09/16 06:41:04;;;;;;;5.13;2.83;;;25.00;56.50;;;;;;5043631;28;20233;-47
2021/09/16 06:43:31;;;;;;;5.38;2.92;;;25.00;56.50;;;;;;5038114;28;20256;-44
2021/09/16 06:45:57;;;;;;;5.13;3.03;;;25.00;56.50;;;;;;5039147;28;20293;-51
2021/09/16 06:48:24;;;;;;;3.58;2.92;;;25.00;56.60;;;;;;5031496;28;20252;-47
2021/09/16 06:50:50;;;;;;;5.43;2.80;;;25.00;56.70;;;;;;5035675;28;20226;-42
2021/09/16 06:53:17;;;;;;;4.47;3.08;;;25.00;56.80;;;;;;5034572;28;20721;-42
2021/09/16 06:55:44;;;;;;;4.60;2.83;;;25.00;56.30;;;;;;5033055;28;20234;-45
2021/09/16 06:58:10;;;;;;;3.88;2.50;;;25.00;56.50;;;;;;5036193;28;20320;-44
2021/09/16 07:00:37;;;;;;;6.28;2.80;;;25.00;56.20;;;;;;5036822;28;20264;-43
2021/09/16 07:03:04;;;;;;;3.78;2.00;;;25.00;56.20;;;;;;5035176;28;20220;-45
2021/09/16 07:05:31;;;;;;;4.03;2.60;;;25.10;56.10;;;;;;5034220;28;20645;-45
2021/09/16 07:07:57;;;;;;;4.90;2.35;;;25.10;56.00;;;;;;5034753;28;20198;-47
2021/09/16 07:10:25;;;;;;;3.47;2.40;;;25.10;55.90;;;;;;5036094;28;20282;-43
2021/09/16 07:12:51;;;;;;;4.68;2.60;;;25.10;56.10;;;;;;5027314;28;20200;-43
2021/09/16 07:15:18;;;;;;;3.15;2.47;;;25.10;55.90;;;;;;5031788;28;20194;-42
2021/09/16 07:17:44;;;;;;;4.63;2.60;;;25.10;56.10;;;;;;5029781;28;20670;-45
2021/09/16 07:20:11;;;;;;;4.60;2.85;;;25.10;55.90;;;;;;5029934;28;20194;-47
2021/09/16 07:22:38;;;;;;;3.55;2.33;;;25.10;56.00;;;;;;5031316;28;20218;-43
2021/09/16 07:25:05;;;;;;;3.83;2.53;;;25.10;55.70;;;;;;5035737;28;20236;-43
2021/09/16 07:27:31;;;;;;;5.32;2.85;;;25.10;55.70;;;;;;5036410;28;20724;-43
2021/09/16 07:29:58;;;;;;;2.78;2.13;;;25.10;56.00;;;;;;5042817;28;20226;-42
2021/09/16 07:32:24;;;;;;;4.78;2.47;;;25.10;56.10;;;;;;5035796;28;20654;-45
2021/09/16 07:34:51;;;;;;;6.35;2.63;;;25.10;56.30;;;;;;5039744;28;20222;-43
2021/09/16 07:37:17;;;;;;;6.28;2.60;;;25.10;56.60;;;;;;5035972;28;20294;-42
2021/09/16 07:39:44;;;;;;;2.95;2.30;;;25.10;56.30;;;;;;5039338;28;20222;-43
2021/09/16 07:42:10;;;;;;;3.05;2.30;;;25.10;55.70;;;;;;5037575;28;20206;-47
2021/09/16 07:44:37;;;;;;;4.18;2.15;;;25.10;55.70;;;;;;5032739;28;20284;-42
2021/09/16 07:47:03;;;;;;;2.67;2.30;;;25.10;55.70;;;;;;5038236;28;20644;-43
2021/09/16 07:49:30;;;;;;;3.70;2.20;;;25.10;55.30;;;;;;5035863;28;20198;-43
2021/09/16 07:51:56;;;;;;;4.45;2.35;;;25.10;55.40;;;;;;5039288;28;20229;-42
2021/09/16 07:54:23;;;;;;;2.75;2.17;;;25.10;55.50;;;;;;5034434;28;20892;-41
2021/09/16 07:56:49;;;;;;;4.20;2.40;;;25.10;55.80;;;;;;5034090;28;20530;-45
2021/09/16 07:59:16;;;;;;;3.90;2.10;;;25.10;55.80;;;;;;5037547;28;20306;-43
2021/09/16 08:01:42;;;;;;;3.83;2.67;;;25.20;55.50;;;;;;5039396;28;20641;-45
2021/09/16 08:04:10;;;;;;;2.50;2.00;;;25.10;55.30;;;;;;5033317;28;20307;-44
2021/09/16 08:06:36;;;;;;;2.70;2.03;;;25.20;55.10;;;;;;5037212;28;20197;-42
2021/09/16 08:09:03;;;;;;;2.72;2.40;;;25.20;55.30;;;;;;5036491;28;20218;-47
2021/09/16 08:11:29;;;;;;;2.45;2.25;;;25.10;55.10;;;;;;5040094;28;20267;-43
2021/09/16 08:13:56;;;;;;;2.95;2.50;;;25.20;55.30;;;;;;5032875;28;20719;-46
2021/09/16 08:16:22;;;;;;;3.53;2.60;;;25.20;55.20;;;;;;5036999;28;20658;-47
2021/09/16 08:18:50;;;;;;;2.60;2.40;;;25.20;55.40;;;;;;5043387;28;20202;-43
2021/09/16 08:21:17;;;;;;;3.70;2.85;;;25.20;55.40;;;;;;5051065;28;20230;-47
2021/09/16 08:23:43;;;;;;;4.43;2.78;;;25.10;55.50;;;;;;5048203;28;20228;-43
2021/09/16 08:26:10;;;;;;;3.05;2.53;;;25.20;55.60;;;;;;5032361;28;20258;-44
2021/09/16 08:28:36;;;;;;;3.13;2.28;;;25.10;55.40;;;;;;5033207;28;20238;-45
2021/09/16 08:31:03;;;;;;;4.60;2.83;;;25.20;55.50;;;;;;5034854;28;20230;-48
2021/09/16 08:33:29;;;;;;;2.38;1.83;;;25.10;55.60;;;;;;5038726;28;20262;-45
2021/09/16 08:35:56;;;;;;;3.10;2.35;;;25.10;55.70;;;;;;5035382;28;20256;-46
2021/09/16 08:38:22;;;;;;;2.90;2.20;;;25.10;55.60;;;;;;5033047;28;20325;-44
2021/09/16 08:40:49;;;;;;;3.90;2.30;;;25.10;55.90;;;;;;5038383;28;20226;-44
2021/09/16 08:43:16;;;;;;;2.30;2.10;;;25.10;56.00;;;;;;5033523;28;20274;-43
2021/09/16 08:45:42;;;;;;;3.42;2.33;;;25.10;56.10;;;;;;5040797;28;20634;-46
2021/09/16 08:48:09;;;;;;;4.07;2.53;;;25.10;56.10;;;;;;5033026;28;20248;-42
2021/09/16 08:50:35;;;;;;;3.20;2.55;;;25.10;56.00;;;;;;5032596;28;20242;-48
2021/09/16 08:53:02;;;;;;;3.15;2.55;;;25.10;56.00;;;;;;5053075;28;20713;-47
2021/09/16 08:55:28;;;;;;;2.95;2.40;;;25.10;56.20;;;;;;5046918;28;20520;-41
2021/09/16 08:57:55;;;;;;;3.25;2.45;;;25.10;55.90;;;;;;5029849;28;20313;-42
2021/09/16 09:00:21;;;;;;;3.30;2.53;;;25.10;55.80;;;;;;5032947;28;20217;-45
2021/09/16 09:02:48;;;;;;;2.35;2.10;;;25.10;55.70;;;;;;5037971;28;20252;-42
2021/09/16 09:05:14;;;;;;;2.67;2.33;;;25.20;55.60;;;;;;5033843;28;20257;-44
2021/09/16 09:07:41;;;;;;;2.58;2.00;;;25.10;55.40;;;;;;5037929;28;20226;-45
2021/09/16 09:10:07;;;;;;;2.10;2.00;;;25.10;55.00;;;;;;5039880;28;20378;-44
2021/09/16 09:12:34;;;;;;;2.50;2.30;;;25.10;55.00;;;;;;5036197;28;20273;-41
2021/09/16 09:15:00;;;;;;;4.72;2.00;;;25.10;54.90;;;;;;5037685;28;20238;-41
2021/09/16 09:17:27;;;;;;;2.95;1.95;;;25.10;54.80;;;;;;5034906;28;20230;-42
2021/09/16 09:19:54;;;;;;;1.90;1.80;;;25.10;54.90;;;;;;5050817;28;20246;-48
2021/09/16 09:22:20;;;;;;;2.50;2.30;;;25.10;54.80;;;;;;5051086;28;20201;-47
2021/09/16 09:24:47;;;;;;;2.65;2.20;;;25.10;54.70;;;;;;5042291;28;20272;-42
2021/09/16 09:27:13;;;;;;;2.35;2.00;;;25.10;54.70;;;;;;5031899;28;20702;-42
2021/09/16 09:29:40;;;;;;;2.53;2.33;;;25.10;54.60;;;;;;5032343;28;20516;-44
2021/09/16 09:32:07;;;;;;;2.60;2.40;;;25.10;54.50;;;;;;5032089;28;20744;-44
2021/09/16 09:34:34;;;;;;;2.92;2.25;;;25.10;54.50;;;;;;5036187;28;20237;-46
2021/09/16 09:37:00;;;;;;;2.63;2.20;;;25.10;54.40;;;;;;5031709;28;20282;-43
2021/09/16 09:39:27;;;;;;;2.45;2.22;;;25.20;54.50;;;;;;5037177;28;20244;-45
2021/09/16 09:41:53;;;;;;;2.65;2.45;;;25.20;54.50;;;;;;5038087;28;20234;-46
2021/09/16 09:44:20;;;;;;;2.75;2.25;;;25.10;54.40;;;;;;5036322;28;20311;-43
2021/09/16 09:46:46;;;;;;;2.90;2.22;;;25.20;54.40;;;;;;5034990;28;20237;-42
2021/09/16 09:49:13;;;;;;;3.47;2.10;;;25.20;54.30;;;;;;5042004;28;20336;-47
2021/09/16 09:51:39;;;;;;;2.47;2.08;;;25.20;54.30;;;;;;5048006;28;20247;-42
2021/09/16 09:54:06;;;;;;;2.30;2.10;;;25.20;54.30;;;;;;5047480;28;20635;-44
2021/09/16 09:56:32;;;;;;;2.20;2.05;;;25.20;54.20;;;;;;5038101;28;20433;-42
2021/09/16 09:58:58;;;;;;;2.38;2.15;;;25.20;54.10;;;;;;5036724;28;20242;-45
2021/09/16 10:01:25;;;;;;;2.38;2.17;;;25.20;54.10;;;;;;5036545;28;20292;-42
2021/09/16 10:03:51;;;;;;;2.67;2.42;;;25.20;54.10;;;;;;5031713;28;20308;-45
2021/09/16 10:06:18;;;;;;;2.03;1.90;;;25.20;54.10;;;;;;5031795;28;20262;-46
2021/09/16 10:08:44;;;;;;;2.30;2.10;;;25.20;54.10;;;;;;5040773;28;20629;-46
2021/09/16 10:11:11;;;;;;;2.13;1.92;;;25.20;54.00;;;;;;5033005;28;20230;-48
2021/09/16 10:13:37;;;;;;;2.30;2.10;;;25.20;54.00;;;;;;5031776;28;20249;-42
2021/09/16 10:16:04;;;;;;;2.80;2.13;;;25.20;54.00;;;;;;5034037;28;20257;-45
2021/09/16 10:18:31;;;;;;;2.80;2.33;;;25.20;53.90;;;;;;5035506;28;20577;-42
2021/09/16 10:20:59;;;;;;;2.35;2.15;;;25.20;53.90;;;;;;5037420;28;20619;-46
2021/09/16 10:23:25;;;;;;;2.53;2.30;;;25.20;53.90;;;;;;5036426;28;20236;-47
2021/09/16 10:25:52;;;;;;;2.20;2.00;;;25.20;53.90;;;;;;5039914;28;20772;-42
2021/09/16 10:28:19;;;;;;;4.72;2.45;;;25.20;53.90;;;;;;5032999;28;20224;-43
2021/09/16 10:30:45;;;;;;;3.40;2.50;;;25.20;53.90;;;;;;5040015;28;20201;-42
2021/09/16 10:33:11;;;;;;;2.65;2.45;;;25.20;53.90;;;;;;5038494;28;20218;-44
2021/09/16 10:35:38;;;;;;;2.53;2.30;;;25.20;53.80;;;;;;5032912;28;20281;-44
2021/09/16 10:38:05;;;;;;;2.60;2.40;;;25.20;53.90;;;;;;5036698;28;20198;-46
2021/09/16 10:40:33;;;;;;;2.05;1.90;;;25.20;54.00;;;;;;5038408;28;20756;-48
2021/09/16 10:42:59;;;;;;;2.97;2.20;;;25.20;54.00;;;;;;5033575;28;20226;-48
2021/09/16 10:45:26;;;;;;;2.72;2.15;;;25.20;53.90;;;;;;5032096;28;20316;-45
2021/09/16 10:47:52;;;;;;;3.17;2.10;;;25.20;53.90;;;;;;5033240;28;20303;-47
2021/09/16 10:50:19;;;;;;;3.00;2.20;;;25.20;54.60;;;;;;5044925;28;20206;-49
2021/09/16 10:52:46;;;;;;;2.40;2.20;;;25.20;54.00;;;;;;5037211;28;20249;-44
2021/09/16 10:55:12;;;;;;;3.83;2.10;;;25.20;54.00;;;;;;5030732;28;20241;-45
2021/09/16 10:57:38;;;;;;;2.45;2.10;;;25.20;54.10;;;;;;5030922;28;20319;-50
2021/09/16 11:00:05;;;;;;;2.47;2.05;;;25.20;54.10;;;;;;5035599;28;20345;-46
2021/09/16 11:02:31;;;;;;;2.40;2.20;;;25.20;54.10;;;;;;5030713;28;20250;-44
2021/09/16 11:04:58;;;;;;;6.07;2.47;;;25.20;54.10;;;;;;5044708;28;20304;-44
2021/09/16 11:07:24;;;;;;;4.00;2.50;;;25.20;54.10;;;;;;5035624;28;20205;-47
2021/09/16 11:09:51;;;;;;;2.55;2.35;;;25.20;54.20;;;;;;5045753;28;20229;-46
2021/09/16 11:12:17;;;;;;;3.80;2.30;;;25.20;54.20;;;;;;5037479;28;20284;-44
2021/09/16 11:14:44;;;;;;;3.13;2.30;;;25.20;54.20;;;;;;5031254;28;20202;-42
2021/09/16 11:17:11;;;;;;;3.17;2.60;;;25.20;54.20;;;;;;5033507;28;20204;-45
2021/09/16 11:19:38;;;;;;;2.58;2.38;;;25.20;54.20;;;;;;5043256;28;20648;-47
2021/09/16 11:22:04;;;;;;;2.47;2.28;;;25.20;54.20;;;;;;5046691;28;20229;-46
2021/09/16 11:24:31;;;;;;;2.22;2.03;;;25.20;54.30;;;;;;5046205;28;20205;-45
2021/09/16 11:26:57;;;;;;;4.70;2.53;;;25.20;54.20;;;;;;5038898;28;20270;-42
2021/09/16 11:29:24;;;;;;;2.72;2.53;;;25.20;54.20;;;;;;5031040;28;20289;-41
2021/09/16 11:31:50;;;;;;;6.63;2.58;;;25.20;54.20;;;;;;5041439;28;20202;-43
2021/09/16 11:34:17;;;;;;;2.38;2.17;;;25.20;54.40;;;;;;5037192;28;20242;-47
2021/09/16 11:36:44;;;;;;;3.25;2.65;;;25.20;54.40;;;;;;5030607;28;20604;-49
2021/09/16 11:39:10;;;;;;;3.97;2.15;;;25.20;54.20;;;;;;5046379;28;20252;-43
2021/09/16 11:41:37;;;;;;;3.25;2.38;;;25.20;54.00;;;;;;5048709;28;20233;-42
2021/09/16 11:44:03;;;;;;;3.47;2.22;;;25.20;54.00;;;;;;5048467;28;20334;-48
2021/09/16 11:46:30;;;;;;;3.58;2.20;;;25.20;53.90;;;;;;5046212;28;20265;-51
2021/09/16 11:48:56;;;;;;;2.42;2.17;;;25.20;53.90;;;;;;5042525;28;20229;-48
2021/09/16 11:51:22;;;;;;;2.55;2.15;;;25.20;53.80;;;;;;5040075;28;20367;-45
2021/09/16 11:53:49;;;;;;;3.28;2.20;;;25.20;53.70;;;;;;5032797;28;20309;-43
2021/09/16 11:56:15;;;;;;;3.10;2.20;;;25.20;53.70;;;;;;5047278;28;20260;-45
2021/09/16 11:58:42;;;;;;;2.60;2.40;;;25.20;53.60;;;;;;5034686;28;20369;-46
2021/09/16 12:01:08;;;;;;;2.75;1.95;;;25.20;53.70;;;;;;5042944;28;20228;-46
2021/09/16 12:03:35;;;;;;;2.60;1.98;;;25.20;53.60;;;;;;5043705;28;20264;-44
2021/09/16 12:06:01;;;;;;;2.25;2.08;;;25.20;53.60;;;;;;5032640;28;20324;-45
2021/09/16 12:08:28;;;;;;;2.83;2.00;;;25.20;53.60;;;;;;5034699;28;20268;-42
2021/09/16 12:10:54;;;;;;;2.65;2.35;;;25.20;53.50;;;;;;5049063;28;20279;-43
2021/09/16 12:13:21;;;;;;;2.67;2.10;;;25.20;54.00;;;;;;5047291;28;20252;-43
2021/09/16 12:15:47;;;;;;;2.53;2.30;;;25.20;53.40;;;;;;5051685;28;20256;-42
2021/09/16 12:18:14;;;;;;;2.88;1.88;;;25.20;53.30;;;;;;5034783;28;20322;-43
2021/09/16 12:20:40;;;;;;;2.50;2.00;;;25.20;53.40;;;;;;5036610;28;20234;-43
2021/09/16 12:23:07;;;;;;;2.55;2.35;;;25.20;53.40;;;;;;5051673;28;20675;-42
2021/09/16 12:25:33;;;;;;;3.65;2.25;;;25.20;53.40;;;;;;5033609;28;20250;-43
2021/09/16 12:28:00;;;;;;;2.65;2.13;;;25.30;53.40;;;;;;5043746;28;20297;-44
2021/09/16 12:30:27;;;;;;;5.03;2.30;;;25.20;53.40;;;;;;5051557;28;20229;-49
2021/09/16 12:32:53;;;;;;;2.85;2.10;;;25.30;53.40;;;;;;5053714;28;20256;-45
2021/09/16 12:35:20;;;;;;;4.57;2.88;;;25.30;53.40;;;;;;5050217;28;20252;-44
2021/09/16 12:37:46;;;;;;;2.50;2.17;;;25.30;53.40;;;;;;5049751;28;20230;-42
2021/09/16 12:40:13;;;;;;;3.40;2.53;;;25.20;53.40;;;;;;5052693;28;20244;-44
2021/09/16 12:42:41;;;;;;;3.45;2.40;;;25.30;53.40;;;;;;5045194;28;20261;-45